Time;durP1;ratioP1;P1;durP2;ratioP2;P2;SDS_P1;SDS_P2;PMS_P1;PMS_P2;Temp;Humidity;BMP_temperature;BMP_pressure;BME280_temperature;BME280_humidity;BME280_pressure;Samples;Min_cycle;Max_cycle;Signal;HPM_P1;HPM_P2
2023/08/10 00:00:25;;;;;;;;;;;;;;;13.96;100.00;101948.09;5307966;28;19923;-69
2023/08/10 00:02:56;;;;;;;;;;;;;;;13.97;100.00;101941.75;5304345;28;20339;-69
2023/08/10 00:05:27;;;;;;;;;;;;;;;13.96;100.00;101945.41;5307617;28;20014;-70
2023/08/10 00:07:59;;;;;;;;;;;;;;;13.98;100.00;101948.81;5308516;28;19959;-70
2023/08/10 00:10:30;;;;;;;;;;;;;;;14.02;100.00;101953.03;5306670;28;20463;-69
2023/08/10 00:13:02;;;;;;;;;;;;;;;14.07;100.00;101957.06;5307459;28;20434;-69
2023/08/10 00:15:34;;;;;;;;;;;;;;;14.08;100.00;101953.41;5308349;28;20316;-70
2023/08/10 00:18:05;;;;;;;;;;;;;;;14.09;100.00;101951.59;5290246;28;19916;-70
2023/08/10 00:20:36;;;;;;;;;;;;;;;14.08;100.00;101949.88;5308793;28;19916;-69
2023/08/10 00:23:08;;;;;;;;;;;;;;;14.09;100.00;101955.16;5309316;28;19918;-69
2023/08/10 00:25:39;;;;;;;;;;;;;;;14.09;100.00;101948.91;5312169;28;20038;-69
2023/08/10 00:28:10;;;;;;;;;;;;;;;14.08;100.00;101953.41;5314340;28;19915;-69
2023/08/10 00:30:42;;;;;;;;;;;;;;;14.09;100.00;101954.28;5311506;28;20308;-70
2023/08/10 00:33:13;;;;;;;;;;;;;;;14.14;100.00;101960.16;5310765;28;20433;-69
2023/08/10 00:35:44;;;;;;;;;;;;;;;14.15;100.00;101958.31;5310849;28;20337;-69
2023/08/10 00:38:15;;;;;;;;;;;;;;;14.20;100.00;101964.22;5311593;28;20571;-69
2023/08/10 00:40:47;;;;;;;;;;;;;;;14.19;100.00;101966.06;5309590;28;20401;-70
2023/08/10 00:43:18;;;;;;;;;;;;;;;14.19;100.00;101957.13;5305605;28;19916;-69
2023/08/10 00:45:50;;;;;;;;;;;;;;;14.16;100.00;101955.53;5307137;28;20293;-69
2023/08/10 00:48:23;;;;;;;;;;;;;;;14.18;100.00;101948.22;5307854;28;20987;-69
2023/08/10 00:50:54;;;;;;;;;;;;;;;14.23;100.00;101961.28;5302788;28;19955;-69
2023/08/10 00:53:26;;;;;;;;;;;;;;;14.24;100.00;101958.50;5312686;28;20666;-68
2023/08/10 00:55:57;;;;;;;;;;;;;;;14.24;100.00;101949.59;5308656;28;19912;-67
2023/08/10 00:58:30;;;;;;;;;;;;;;;14.26;100.00;101944.97;5312881;27;20002;-69
2023/08/10 01:01:01;;;;;;;;;;;;;;;14.29;100.00;101942.06;5310817;28;20542;-69
2023/08/10 01:03:33;;;;;;;;;;;;;;;14.30;100.00;101943.75;5304850;28;19923;-69
2023/08/10 01:06:22;;;;;;;;;;;;;;;14.31;100.00;101946.34;5302672;28;19912;-69
2023/08/10 01:09:03;;;;;;;;;;;;;;;14.31;100.00;101950.88;5307879;28;19911;-69
2023/08/10 01:11:37;;;;;;;;;;;;;;;14.30;100.00;101960.75;5309854;28;19920;-71
2023/08/10 01:14:08;;;;;;;;;;;;;;;14.31;100.00;101956.22;5308615;28;19957;-69
2023/08/10 01:16:41;;;;;;;;;;;;;;;14.29;100.00;101950.13;5312156;27;20457;-69
2023/08/10 01:19:25;;;;;;;;;;;;;;;14.30;100.00;101960.75;5306890;27;19916;-69
2023/08/10 01:22:09;;;;;;;;;;;;;;;14.31;100.00;101957.09;5310239;28;20003;-70
2023/08/10 01:24:41;;;;;;;;;;;;;;;14.31;100.00;101964.28;5307739;27;19923;-69
2023/08/10 01:27:13;;;;;;;;;;;;;;;14.28;100.00;101954.63;5306753;28;20353;-69
2023/08/10 01:29:45;;;;;;;;;;;;;;;14.29;100.00;101952.81;5311000;28;19925;-69
2023/08/10 01:32:16;;;;;;;;;;;;;;;14.28;100.00;101956.44;5308945;28;19970;-69
2023/08/10 01:34:50;;;;;;;;;;;;;;;14.24;100.00;101955.81;5307961;27;20883;-69
2023/08/10 01:37:22;;;;;;;;;;;;;;;14.21;100.00;101958.75;5307677;28;19919;-69
2023/08/10 01:39:53;;;;;;;;;;;;;;;14.19;100.00;101958.00;5308522;27;19911;-69
2023/08/10 01:42:24;;;;;;;;;;;;;;;14.14;100.00;101962.84;5307458;28;20000;-70
2023/08/10 01:44:55;;;;;;;;;;;;;;;14.11;100.00;101958.56;5308319;28;20454;-69
2023/08/10 01:47:28;;;;;;;;;;;;;;;14.10;100.00;101964.91;5306986;28;19950;-70
2023/08/10 01:50:00;;;;;;;;;;;;;;;14.08;100.00;101960.63;5310161;27;19920;-70
2023/08/10 01:52:34;;;;;;;;;;;;;;;14.03;100.00;101952.91;5307536;28;20382;-69
2023/08/10 01:55:07;;;;;;;;;;;;;;;14.03;100.00;101965.47;5309920;28;19919;-70
2023/08/10 01:57:39;;;;;;;;;;;;;;;14.01;100.00;101957.50;5302341;28;19984;-70
2023/08/10 02:00:12;;;;;;;;;;;;;;;14.02;100.00;101963.75;5305031;28;20334;-69
2023/08/10 02:02:43;;;;;;;;;;;;;;;14.00;100.00;101958.50;5305398;28;20445;-69
2023/08/10 02:05:14;;;;;;;;;;;;;;;13.96;100.00;101957.00;5305672;28;19919;-69
2023/08/10 02:07:48;;;;;;;;;;;;;;;13.93;100.00;101966.13;5298892;28;19916;-69
2023/08/10 02:10:20;;;;;;;;;;;;;;;13.91;100.00;101965.38;5306022;28;19947;-69
2023/08/10 02:12:51;;;;;;;;;;;;;;;13.89;100.00;101956.59;5310647;27;20014;-69
2023/08/10 02:15:22;;;;;;;;;;;;;;;13.85;100.00;101957.78;5307089;28;19957;-70
2023/08/10 02:17:54;;;;;;;;;;;;;;;13.82;100.00;101965.19;5312053;27;19989;-70
2023/08/10 02:20:25;;;;;;;;;;;;;;;13.81;100.00;101968.88;5309013;28;19927;-69
2023/08/10 02:22:56;;;;;;;;;;;;;;;13.80;100.00;101957.25;5306832;27;20400;-69
2023/08/10 02:25:27;;;;;;;;;;;;;;;13.77;100.00;101976.28;5311559;27;19986;-69
2023/08/10 02:27:59;;;;;;;;;;;;;;;13.75;100.00;101972.84;5308234;27;19922;-70
2023/08/10 02:30:30;;;;;;;;;;;;;;;13.73;100.00;101969.41;5309714;28;20379;-69
2023/08/10 02:33:02;;;;;;;;;;;;;;;13.70;100.00;101973.16;5307367;28;20357;-69
2023/08/10 02:35:33;;;;;;;;;;;;;;;13.65;100.00;101967.28;5308568;28;20387;-69
2023/08/10 02:38:04;;;;;;;;;;;;;;;13.66;100.00;101977.03;5308043;28;20333;-69
2023/08/10 02:40:36;;;;;;;;;;;;;;;13.63;100.00;101973.72;5310007;28;20477;-69
2023/08/10 02:43:07;;;;;;;;;;;;;;;13.60;100.00;101973.94;5306339;27;19919;-69
2023/08/10 02:45:38;;;;;;;;;;;;;;;13.58;100.00;101976.72;5308444;28;19920;-70
2023/08/10 02:48:09;;;;;;;;;;;;;;;13.54;100.00;101969.88;5309381;28;19920;-69
2023/08/10 02:50:41;;;;;;;;;;;;;;;13.51;100.00;101976.28;5309833;28;20391;-69
2023/08/10 02:53:12;;;;;;;;;;;;;;;13.49;100.00;101975.53;5307347;28;19915;-69
2023/08/10 02:55:43;;;;;;;;;;;;;;;13.45;100.00;101974.06;5314591;28;19915;-69
2023/08/10 02:58:14;;;;;;;;;;;;;;;13.43;100.00;101986.72;5315735;28;20384;-69
2023/08/10 03:00:46;;;;;;;;;;;;;;;13.41;100.00;101980.59;5310008;28;20002;-69
2023/08/10 03:03:18;;;;;;;;;;;;;;;13.38;100.00;101979.94;5311448;28;20067;-69
2023/08/10 03:05:49;;;;;;;;;;;;;;;13.34;100.00;101979.31;5310574;28;19919;-69
2023/08/10 03:08:21;;;;;;;;;;;;;;;13.30;100.00;101983.16;5314818;28;20682;-69
2023/08/10 03:10:52;;;;;;;;;;;;;;;13.27;100.00;101984.22;5308291;28;19960;-69
2023/08/10 03:13:24;;;;;;;;;;;;;;;13.29;100.00;101993.00;5309665;28;20006;-69
2023/08/10 03:15:55;;;;;;;;;;;;;;;13.28;100.00;101985.91;5309309;28;20018;-69
2023/08/10 03:18:26;;;;;;;;;;;;;;;13.27;100.00;101994.94;5308532;28;20450;-69
2023/08/10 03:20:58;;;;;;;;;;;;;;;13.25;100.00;102001.34;5311247;28;19922;-69
2023/08/10 03:23:29;;;;;;;;;;;;;;;13.23;100.00;101995.25;5297799;28;19919;-70
2023/08/10 03:26:00;;;;;;;;;;;;;;;13.19;100.00;101993.75;5313972;28;19912;-69
2023/08/10 03:28:31;;;;;;;;;;;;;;;13.18;100.00;101998.25;5313194;28;20003;-69
2023/08/10 03:31:03;;;;;;;;;;;;;;;13.19;100.00;101999.94;5306364;28;20011;-69
2023/08/10 03:33:34;;;;;;;;;;;;;;;13.18;100.00;101992.91;5306727;28;20384;-69
2023/08/10 03:36:05;;;;;;;;;;;;;;;13.14;100.00;101984.22;5310235;28;19915;-69
2023/08/10 03:38:37;;;;;;;;;;;;;;;13.10;100.00;101980.03;5315940;28;19919;-69
2023/08/10 03:41:08;;;;;;;;;;;;;;;13.09;100.00;101980.97;5310800;28;20285;-69
2023/08/10 03:43:39;;;;;;;;;;;;;;;13.11;100.00;101978.19;5310518;28;19963;-69
2023/08/10 03:46:10;;;;;;;;;;;;;;;13.11;100.00;101984.41;5310321;28;20155;-69
2023/08/10 03:48:42;;;;;;;;;;;;;;;13.12;100.00;101987.97;5307211;28;20568;-69
2023/08/10 03:51:13;;;;;;;;;;;;;;;13.12;100.00;101983.47;5308598;28;20392;-69
2023/08/10 03:53:44;;;;;;;;;;;;;;;13.12;100.00;101987.97;5309285;28;20294;-69
2023/08/10 03:56:15;;;;;;;;;;;;;;;13.11;100.00;101994.28;5313845;28;19968;-69
2023/08/10 03:58:47;;;;;;;;;;;;;;;13.08;100.00;101995.34;5307429;28;20399;-69
2023/08/10 04:01:18;;;;;;;;;;;;;;;13.07;100.00;101988.25;5308039;28;19919;-69
2023/08/10 04:03:49;;;;;;;;;;;;;;;13.07;100.00;101993.63;5308609;28;20410;-69
2023/08/10 04:06:22;;;;;;;;;;;;;;;13.05;100.00;101992.03;5313839;28;20404;-71
2023/08/10 04:08:53;;;;;;;;;;;;;;;13.04;100.00;101996.53;5271251;28;1103527;-69
2023/08/10 04:11:24;;;;;;;;;;;;;;;13.03;100.00;101999.31;5313912;28;19920;-69
2023/08/10 04:13:56;;;;;;;;;;;;;;;13.01;100.00;102003.91;5315531;28;20336;-69
2023/08/10 04:16:27;;;;;;;;;;;;;;;12.98;100.00;102009.47;5317832;28;19930;-69
2023/08/10 04:18:58;;;;;;;;;;;;;;;12.94;100.00;102003.47;5317392;28;19915;-69
2023/08/10 04:21:29;;;;;;;;;;;;;;;12.91;100.00;102009.03;5318310;28;20483;-69
2023/08/10 04:24:00;;;;;;;;;;;;;;;12.88;100.00;102009.25;5308887;28;20020;-69
2023/08/10 04:26:32;;;;;;;;;;;;;;;12.87;100.00;102015.56;5314257;28;19923;-69
2023/08/10 04:29:03;;;;;;;;;;;;;;;12.83;100.00;102014.91;5306936;28;19922;-69
2023/08/10 04:31:34;;;;;;;;;;;;;;;12.83;100.00;102009.56;5311002;28;19920;-69
2023/08/10 04:34:06;;;;;;;;;;;;;;;12.81;100.00;102008.81;5310983;28;19908;-69
2023/08/10 04:36:37;;;;;;;;;;;;;;;12.80;100.00;102009.75;5311156;28;20388;-69
2023/08/10 04:39:08;;;;;;;;;;;;;;;12.77;100.00;102012.66;5316184;28;20290;-70
2023/08/10 04:41:39;;;;;;;;;;;;;;;12.77;100.00;102011.78;5311495;28;19916;-69
2023/08/10 04:44:11;;;;;;;;;;;;;;;12.73;100.00;102022.72;5308542;28;20293;-69
2023/08/10 04:46:42;;;;;;;;;;;;;;;12.73;100.00;102016.47;5307976;28;19920;-69
2023/08/10 04:49:13;;;;;;;;;;;;;;;12.74;100.00;102026.25;5311882;28;19938;-69
2023/08/10 04:51:44;;;;;;;;;;;;;;;12.74;100.00;102026.25;5304945;28;19920;-69
2023/08/10 04:54:16;;;;;;;;;;;;;;;12.73;100.00;102036.09;5305627;28;19911;-69
2023/08/10 04:56:47;;;;;;;;;;;;;;;12.79;100.00;102031.28;5309657;28;20029;-69
2023/08/10 04:59:18;;;;;;;;;;;;;;;12.81;100.00;102026.69;5309531;28;19969;-69
2023/08/10 05:01:49;;;;;;;;;;;;;;;12.85;100.00;102034.41;5311765;28;19919;-70
2023/08/10 05:04:21;;;;;;;;;;;;;;;12.90;100.00;102031.41;5307037;28;20020;-69
2023/08/10 05:06:52;;;;;;;;;;;;;;;12.93;100.00;102039.25;5306722;28;19923;-69
2023/08/10 05:09:23;;;;;;;;;;;;;;;12.99;100.00;102032.63;5314723;28;19943;-69
2023/08/10 05:11:54;;;;;;;;;;;;;;;13.03;100.00;102026.94;5308571;28;20251;-70
2023/08/10 05:14:26;;;;;;;;;;;;;;;13.06;100.00;102024.06;5313720;28;20386;-69
2023/08/10 05:16:57;;;;;;;;;;;;;;;13.09;100.00;102031.03;5316563;27;19919;-69
2023/08/10 05:19:28;;;;;;;;;;;;;;;13.12;100.00;102034.38;5317222;27;19921;-69
2023/08/10 05:22:00;;;;;;;;;;;;;;;13.19;100.00;102028.59;5318324;28;20346;-69
2023/08/10 05:24:32;;;;;;;;;;;;;;;13.21;100.00;102032.00;5317956;27;19915;-69
2023/08/10 05:27:03;;;;;;;;;;;;;;;13.19;100.00;102024.06;5317818;27;19916;-69
2023/08/10 05:29:34;;;;;;;;;;;;;;;13.26;100.00;102029.88;5311791;28;19920;-69
2023/08/10 05:32:06;;;;;;;;;;;;;;;13.28;100.00;102028.81;5317964;28;19939;-69
2023/08/10 05:34:37;;;;;;;;;;;;;;;13.30;100.00;102036.78;5309066;28;19919;-69
2023/08/10 05:37:08;;;;;;;;;;;;;;;13.36;100.00;102031.00;5312127;28;19911;-69
2023/08/10 05:39:39;;;;;;;;;;;;;;;13.41;100.00;102028.00;5318821;28;19942;-69
2023/08/10 05:42:11;;;;;;;;;;;;;;;13.46;100.00;102024.03;5314227;28;19960;-69
2023/08/10 05:44:42;;;;;;;;;;;;;;;13.53;100.00;102029.81;5313410;28;19912;-69
2023/08/10 05:47:13;;;;;;;;;;;;;;;13.56;100.00;102020.69;5317488;28;19919;-69
2023/08/10 05:49:44;;;;;;;;;;;;;;;13.61;100.00;102021.22;5316482;28;19920;-69
2023/08/10 05:52:15;;;;;;;;;;;;;;;13.65;100.00;102014.69;5306795;28;20026;-69
2023/08/10 05:54:47;;;;;;;;;;;;;;;13.70;100.00;102023.25;5306622;28;20856;-70
2023/08/10 05:57:18;;;;;;;;;;;;;;;13.74;100.00;102019.41;5316809;28;20385;-69
2023/08/10 05:59:50;;;;;;;;;;;;;;;13.78;100.00;102017.34;5313366;28;19959;-69
2023/08/10 06:02:21;;;;;;;;;;;;;;;13.80;100.00;102024.31;5318169;28;19919;-69
2023/08/10 06:04:53;;;;;;;;;;;;;;;13.86;100.00;102026.56;5308822;27;19912;-69
2023/08/10 06:07:24;;;;;;;;;;;;;;;13.92;100.00;102026.13;5308682;28;19919;-69
2023/08/10 06:09:55;;;;;;;;;;;;;;;13.98;100.00;102026.66;5317984;27;19919;-70
2023/08/10 06:12:26;;;;;;;;;;;;;;;14.07;100.00;102023.31;5317304;28;19927;-69
2023/08/10 06:14:58;;;;;;;;;;;;;;;14.12;100.00;102021.16;5308067;28;20338;-69
2023/08/10 06:17:29;;;;;;;;;;;;;;;14.21;100.00;102020.50;5312334;28;19915;-69
2023/08/10 06:20:04;;;;;;;;;;;;;;;14.28;100.00;102015.50;5309809;28;19918;-69
2023/08/10 06:22:36;;;;;;;;;;;;;;;14.38;100.00;102019.25;5306072;28;19962;-69
2023/08/10 06:25:08;;;;;;;;;;;;;;;14.42;100.00;102031.47;5310611;28;19916;-70
2023/08/10 06:27:40;;;;;;;;;;;;;;;14.46;100.00;102032.97;5315644;28;20006;-70
2023/08/10 06:30:13;;;;;;;;;;;;;;;14.48;100.00;102031.00;5308202;28;19942;-69
2023/08/10 06:32:44;;;;;;;;;;;;;;;14.49;100.00;102032.72;5310907;28;19911;-70
2023/08/10 06:35:15;;;;;;;;;;;;;;;14.54;100.00;102028.84;5311658;27;19922;-69
2023/08/10 06:37:48;;;;;;;;;;;;;;;14.56;100.00;102030.44;5321117;27;19923;-69
2023/08/10 06:40:20;;;;;;;;;;;;;;;14.59;100.00;102022.16;5314939;28;19912;-69
2023/08/10 06:42:51;;;;;;;;;;;;;;;14.63;100.00;102020.13;5317940;28;20384;-69
2023/08/10 06:45:22;;;;;;;;;;;;;;;14.68;100.00;102017.94;5315278;27;20507;-69
2023/08/10 06:47:54;;;;;;;;;;;;;;;14.70;100.00;102011.47;5312460;28;19966;-69
2023/08/10 06:50:25;;;;;;;;;;;;;;;14.73;100.00;102014.91;5313103;28;19915;-70
2023/08/10 06:52:56;;;;;;;;;;;;;;;14.80;100.00;102008.09;5302682;28;19915;-69
2023/08/10 06:55:30;;;;;;;;;;;;;;;14.85;100.00;102019.38;5309304;28;19914;-70
2023/08/10 06:58:02;;;;;;;;;;;;;;;14.88;100.00;102011.06;5317647;28;19920;-70
2023/08/10 07:00:34;;;;;;;;;;;;;;;14.92;100.00;102012.56;5316870;28;19916;-70
2023/08/10 07:03:06;;;;;;;;;;;;;;;14.96;100.00;102014.03;5317787;28;19923;-70
2023/08/10 07:05:38;;;;;;;;;;;;;;;15.03;100.00;102014.41;5314079;28;19959;-70
2023/08/10 07:08:09;;;;;;;;;;;;;;;15.09;100.00;102004.06;5313681;28;19912;-70
2023/08/10 07:10:40;;;;;;;;;;;;;;;15.17;100.00;102016.91;5316445;28;19927;-70
2023/08/10 07:13:12;;;;;;;;;;;;;;;15.21;100.00;102009.47;5315250;28;19968;-70
2023/08/10 07:15:44;;;;;;;;;;;;;;;15.27;100.00;102007.13;5316475;28;19950;-69
2023/08/10 07:18:15;;;;;;;;;;;;;;;15.36;100.00;102008.28;5313644;28;19915;-70
2023/08/10 07:20:46;;;;;;;;;;;;;;;15.45;100.00;102006.66;5311598;28;20297;-70
2023/08/10 07:23:18;;;;;;;;;;;;;;;15.51;100.00;102006.19;5310387;28;20449;-70
2023/08/10 07:25:53;;;;;;;;;;;;;;;15.59;100.00;102008.25;5308500;28;19980;-70
2023/08/10 07:28:25;;;;;;;;;;;;;;;15.69;100.00;102011.97;5307629;28;20024;-70
2023/08/10 07:30:59;;;;;;;;;;;;;;;15.80;100.00;102014.69;5306812;28;19922;-70
2023/08/10 07:33:30;;;;;;;;;;;;;;;15.88;100.00;102009.53;5307194;28;19919;-70
2023/08/10 07:36:01;;;;;;;;;;;;;;;15.99;100.00;102016.75;5312240;28;19912;-70
2023/08/10 07:38:32;;;;;;;;;;;;;;;16.12;100.00;102008.50;5306100;28;20337;-70
2023/08/10 07:41:04;;;;;;;;;;;;;;;16.24;100.00;102003.97;5313622;28;20378;-70
2023/08/10 07:43:35;;;;;;;;;;;;;;;16.30;100.00;102002.59;5311873;28;19920;-70
2023/08/10 07:46:06;;;;;;;;;;;;;;;16.40;100.00;102011.66;5312870;28;19922;-70
2023/08/10 07:48:38;;;;;;;;;;;;;;;16.46;100.00;102013.81;5317551;28;19912;-70
2023/08/10 07:51:09;;;;;;;;;;;;;;;16.51;100.00;102014.31;5316337;28;19919;-70
2023/08/10 07:53:40;;;;;;;;;;;;;;;16.54;100.00;102003.25;5317045;28;20422;-70
2023/08/10 07:56:11;;;;;;;;;;;;;;;16.62;100.00;102014.25;5315186;28;20372;-71
2023/08/10 07:58:43;;;;;;;;;;;;;;;16.66;100.00;102013.03;5315040;28;20588;-70
2023/08/10 08:01:14;;;;;;;;;;;;;;;16.74;100.00;102014.19;5325405;28;19916;-70
2023/08/10 08:03:45;;;;;;;;;;;;;;;16.79;100.00;102012.84;5305292;28;19915;-70
2023/08/10 08:06:17;;;;;;;;;;;;;;;16.90;100.00;102013.81;5311376;28;19924;-70
2023/08/10 08:08:48;;;;;;;;;;;;;;;16.99;100.00;102011.19;5320016;28;19938;-70
2023/08/10 08:11:19;;;;;;;;;;;;;;;17.04;100.00;102008.94;5317830;28;19923;-70
2023/08/10 08:13:50;;;;;;;;;;;;;;;17.13;100.00;102001.06;5308496;28;20311;-70
2023/08/10 08:16:22;;;;;;;;;;;;;;;17.19;100.00;102000.53;5314426;28;20128;-70
2023/08/10 08:18:54;;;;;;;;;;;;;;;17.24;100.00;102001.84;5316330;28;20450;-69
2023/08/10 08:21:26;;;;;;;;;;;;;;;17.32;100.00;102003.88;5309796;28;20546;-69
2023/08/10 08:23:58;;;;;;;;;;;;;;;17.40;100.00;102000.50;5325117;28;19919;-68
2023/08/10 08:26:32;;;;;;;;;;;;;;;17.48;100.00;101997.13;5316157;28;19919;-69
2023/08/10 08:29:03;;;;;;;;;;;;;;;17.59;100.00;101999.75;5315334;28;21168;-69
2023/08/10 08:31:35;;;;;;;;;;;;;;;17.66;100.00;102000.94;5316774;28;19916;-70
2023/08/10 08:34:06;;;;;;;;;;;;;;;17.71;100.00;102003.22;5306799;28;20002;-69
2023/08/10 08:36:38;;;;;;;;;;;;;;;17.76;100.00;102007.22;5305471;28;19934;-69
2023/08/10 08:39:09;;;;;;;;;;;;;;;17.83;100.00;102005.69;5316817;28;19911;-70
2023/08/10 08:41:41;;;;;;;;;;;;;;;17.92;100.00;102008.59;5313050;28;19923;-70
2023/08/10 08:44:13;;;;;;;;;;;;;;;18.00;100.00;102004.19;5316760;28;19919;-70
2023/08/10 08:46:45;;;;;;;;;;;;;;;18.10;100.00;102009.66;5320166;28;20034;-70
2023/08/10 08:49:17;;;;;;;;;;;;;;;18.17;100.00;102005.38;5310538;27;19919;-70
2023/08/10 08:51:49;;;;;;;;;;;;;;;18.29;100.00;102007.97;5319142;28;20320;-70
2023/08/10 08:54:20;;;;;;;;;;;;;;;18.48;100.00;102009.84;5318100;27;20412;-70
2023/08/10 08:56:51;;;;;;;;;;;;;;;18.67;100.00;102009.84;5319842;28;19916;-70
2023/08/10 08:59:23;;;;;;;;;;;;;;;18.96;100.00;102006.31;5312690;28;20217;-70
2023/08/10 09:01:55;;;;;;;;;;;;;;;19.17;100.00;102003.41;5311238;28;19955;-70
2023/08/10 09:04:26;;;;;;;;;;;;;;;19.38;100.00;102006.78;5312787;28;20043;-71
2023/08/10 09:06:57;;;;;;;;;;;;;;;19.54;100.00;102002.59;5308800;27;19920;-70
2023/08/10 09:09:28;;;;;;;;;;;;;;;19.66;100.00;101985.19;5310708;27;20006;-70
2023/08/10 09:12:20;;;;;;;;;;;;;;;19.80;100.00;101989.28;5307918;28;19916;-70
2023/08/10 09:15:02;;;;;;;;;;;;;;;19.89;100.00;101977.56;5303374;28;19950;-70
2023/08/10 09:17:34;;;;;;;;;;;;;;;20.03;100.00;101987.03;5315874;28;19911;-70
2023/08/10 09:20:08;;;;;;;;;;;;;;;20.13;100.00;101982.38;5310986;28;19916;-70
2023/08/10 09:22:40;;;;;;;;;;;;;;;20.20;100.00;101974.50;5319291;27;19950;-70
2023/08/10 09:25:11;;;;;;;;;;;;;;;20.30;100.00;101980.69;5312363;28;20439;-71
2023/08/10 09:27:42;;;;;;;;;;;;;;;20.40;100.00;101980.63;5316026;27;19915;-70
2023/08/10 09:30:14;;;;;;;;;;;;;;;20.48;100.00;101983.44;5325256;27;19927;-71
2023/08/10 09:32:45;;;;;;;;;;;;;;;20.62;100.00;101983.94;5286564;28;19923;-70
2023/08/10 09:35:18;;;;;;;;;;;;;;;20.75;100.00;101978.97;5312389;28;19923;-70
2023/08/10 09:37:57;;;;;;;;;;;;;;;20.88;100.00;101979.41;5306987;28;19915;-70
2023/08/10 09:40:29;;;;;;;;;;;;;;;21.00;100.00;101979.13;5310115;27;19912;-70
2023/08/10 09:43:07;;;;;;;;;;;;;;;21.02;100.00;101977.16;5314666;28;19918;-71
2023/08/10 09:45:40;;;;;;;;;;;;;;;21.05;100.00;101984.94;5314486;28;19941;-71
2023/08/10 09:48:12;;;;;;;;;;;;;;;21.11;100.00;101987.91;5319195;27;19912;-70
2023/08/10 09:50:45;;;;;;;;;;;;;;;21.12;100.00;101980.59;5318563;28;19927;-71
2023/08/10 09:53:16;;;;;;;;;;;;;;;21.28;100.00;101982.56;5315463;28;20305;-70
2023/08/10 09:55:47;;;;;;;;;;;;;;;21.45;100.00;101978.97;5308962;28;19930;-70
2023/08/10 09:58:19;;;;;;;;;;;;;;;21.38;100.00;101974.31;5318432;27;20505;-71
2023/08/10 10:00:50;;;;;;;;;;;;;;;21.40;100.00;101975.00;5311654;28;20016;-70
2023/08/10 10:03:22;;;;;;;;;;;;;;;21.48;100.00;101977.81;5311343;28;19923;-71
2023/08/10 10:05:54;;;;;;;;;;;;;;;21.52;100.00;101976.47;5318186;28;20378;-70
2023/08/10 10:08:26;;;;;;;;;;;;;;;21.62;100.00;101982.63;5317767;28;19922;-70
2023/08/10 10:10:59;;;;;;;;;;;;;;;21.61;100.00;101978.22;5312888;28;19931;-71
2023/08/10 10:13:31;;;;;;;;;;;;;;;21.72;100.00;101977.06;5319124;27;19920;-70
2023/08/10 10:16:03;;;;;;;;;;;;;;;21.80;100.00;101978.94;5322370;27;19945;-71
2023/08/10 10:18:35;;;;;;;;;;;;;;;21.79;100.00;101980.81;5312896;28;19942;-70
2023/08/10 10:21:06;;;;;;;;;;;;;;;21.85;100.00;101984.75;5317288;28;19963;-70
2023/08/10 10:23:41;;;;;;;;;;;;;;;21.87;100.00;101990.88;5317339;27;19911;-70
2023/08/10 10:26:12;;;;;;;;;;;;;;;21.91;100.00;101986.81;5318920;28;19939;-70
2023/08/10 10:29:03;;;;;;;;;;;;;;;21.95;100.00;101993.63;5312846;28;19911;-70
2023/08/10 10:31:35;;;;;;;;;;;;;;;21.97;100.00;101986.16;5314468;27;19924;-71
2023/08/10 10:34:10;;;;;;;;;;;;;;;22.03;100.00;101990.06;5316013;28;19964;-71
2023/08/10 10:36:41;;;;;;;;;;;;;;;22.12;100.00;101983.66;5318469;28;19915;-70
2023/08/10 10:39:19;;;;;;;;;;;;;;;22.12;100.00;101984.50;5316709;28;19915;-70
2023/08/10 10:41:50;;;;;;;;;;;;;;;22.20;100.00;101975.50;5312799;28;19947;-70
2023/08/10 10:44:22;;;;;;;;;;;;;;;22.26;100.00;101976.75;5310238;28;20229;-70
2023/08/10 10:46:53;;;;;;;;;;;;;;;22.37;100.00;101967.44;5312765;28;19912;-70
2023/08/10 10:49:25;;;;;;;;;;;;;;;22.42;100.00;101976.78;5312860;27;19915;-71
2023/08/10 10:52:00;;;;;;;;;;;;;;;22.45;100.00;101976.44;5318936;27;20375;-71
2023/08/10 10:54:35;;;;;;;;;;;;;;;22.49;100.00;101966.94;5315132;28;19981;-71
2023/08/10 10:57:06;;;;;;;;;;;;;;;22.57;100.00;101959.78;5312527;28;19922;-70
2023/08/10 10:59:37;;;;;;;;;;;;;;;22.60;100.00;101960.28;5312451;28;20406;-69
2023/08/10 11:02:09;;;;;;;;;;;;;;;22.61;100.00;101967.44;5314192;28;19966;-71
2023/08/10 11:04:41;;;;;;;;;;;;;;;22.62;100.00;101962.84;5314945;27;19990;-70
2023/08/10 11:07:12;;;;;;;;;;;;;;;22.61;100.00;101964.72;5317436;27;19911;-71
2023/08/10 11:09:43;;;;;;;;;;;;;;;22.61;100.00;101958.41;5316165;28;19922;-70
2023/08/10 11:12:16;;;;;;;;;;;;;;;22.63;100.00;101965.41;5317323;28;20282;-71
2023/08/10 11:14:47;;;;;;;;;;;;;;;22.59;100.00;101957.75;5317727;28;19920;-71
2023/08/10 11:17:19;;;;;;;;;;;;;;;22.61;100.00;101958.41;5311007;28;19973;-71
2023/08/10 11:19:50;;;;;;;;;;;;;;;22.51;100.00;101950.44;5314422;28;19915;-70
2023/08/10 11:22:22;;;;;;;;;;;;;;;22.48;100.00;101948.91;5314448;27;19961;-71
2023/08/10 11:24:53;;;;;;;;;;;;;;;22.49;100.00;101961.50;5316220;28;19919;-71
2023/08/10 11:27:25;;;;;;;;;;;;;;;22.44;100.00;101949.44;5314975;28;19915;-71
2023/08/10 11:29:57;;;;;;;;;;;;;;;22.46;100.00;101941.94;5309189;28;20125;-71
2023/08/10 11:32:28;;;;;;;;;;;;;;;22.45;100.00;101943.78;5319734;28;19912;-71
2023/08/10 11:34:59;;;;;;;;;;;;;;;22.48;100.00;101943.47;5318903;28;19922;-71
2023/08/10 11:37:30;;;;;;;;;;;;;;;22.45;100.00;101941.06;5317210;28;20344;-71
2023/08/10 11:40:11;;;;;;;;;;;;;;;22.42;100.00;101941.44;5312670;28;20388;-71
2023/08/10 11:42:45;;;;;;;;;;;;;;;22.42;100.00;101941.44;5315312;28;19919;-71
2023/08/10 11:45:19;;;;;;;;;;;;;;;22.44;100.00;101944.81;5309254;28;19918;-71
2023/08/10 11:47:51;;;;;;;;;;;;;;;22.47;100.00;101949.91;5308465;28;19984;-72
2023/08/10 11:50:22;;;;;;;;;;;;;;;22.54;100.00;101930.22;5310598;28;19916;-71
2023/08/10 11:52:53;;;;;;;;;;;;;;;22.60;100.00;101935.81;5308691;28;20002;-71
2023/08/10 11:55:27;;;;;;;;;;;;;;;22.60;100.00;101934.97;5310769;28;19915;-69
2023/08/10 11:57:59;;;;;;;;;;;;;;;22.61;100.00;101933.94;5307557;28;20185;-71
2023/08/10 12:00:33;;;;;;;;;;;;;;;22.56;100.00;101937.19;5306790;28;19915;-71
2023/08/10 12:03:06;;;;;;;;;;;;;;;22.56;100.00;101933.63;5289663;28;19965;-72
2023/08/10 12:05:39;;;;;;;;;;;;;;;22.51;100.00;101934.09;5309966;28;19926;-71
2023/08/10 12:08:12;;;;;;;;;;;;;;;22.50;100.00;101940.59;5308234;28;19963;-71
2023/08/10 12:10:44;;;;;;;;;;;;;;;22.60;100.00;101932.25;5308610;28;19924;-71
2023/08/10 12:13:17;;;;;;;;;;;;;;;22.63;100.00;101929.19;5313947;28;19930;-71
2023/08/10 12:15:49;;;;;;;;;;;;;;;22.69;100.00;101936.69;5312475;28;19955;-71
2023/08/10 12:18:21;;;;;;;;;;;;;;;22.66;100.00;101929.69;5309457;28;20048;-71
2023/08/10 12:20:53;;;;;;;;;;;;;;;22.74;100.00;101934.28;5314079;28;19915;-71
2023/08/10 12:23:25;;;;;;;;;;;;;;;22.77;100.00;101931.22;5280895;28;19920;-71
2023/08/10 12:25:56;;;;;;;;;;;;;;;22.78;100.00;101930.22;5311224;28;20418;-71
2023/08/10 12:28:27;;;;;;;;;;;;;;;22.78;100.00;101934.78;5297715;28;20333;-71
2023/08/10 12:31:03;;;;;;;;;;;;;;;22.77;100.00;101928.50;5316706;27;19919;-71
2023/08/10 12:33:35;;;;;;;;;;;;;;;22.77;100.00;101933.09;5301024;28;20413;-71
2023/08/10 12:36:07;;;;;;;;;;;;;;;22.75;100.00;101925.09;5304726;28;19945;-71
2023/08/10 12:38:38;;;;;;;;;;;;;;;22.75;100.00;101925.09;5320239;28;19945;-71
2023/08/10 12:41:10;;;;;;;;;;;;;;;22.76;100.00;101924.06;5312943;28;19915;-71
2023/08/10 12:43:41;;;;;;;;;;;;;;;22.78;100.00;101921.19;5317127;28;19950;-71
2023/08/10 12:46:12;;;;;;;;;;;;;;;22.78;100.00;101915.72;5319390;27;19916;-71
2023/08/10 12:48:43;;;;;;;;;;;;;;;22.77;100.00;101914.91;5320003;27;20002;-71